createdAt,value
2022-11-02T00:00:52.244Z,89.11
2022-11-02T00:03:22.459Z,89.52
2022-11-02T00:05:52.326Z,89.79
2022-11-02T00:08:22.996Z,89.27
2022-11-02T00:10:53.152Z,89.55
2022-11-02T00:13:22.913Z,89.79
2022-11-02T00:15:52.316Z,88.73
2022-11-02T00:18:22.868Z,89.76
2022-11-02T00:20:53.422Z,90.00
2022-11-02T00:23:24.564Z,90.18
2022-11-02T00:25:57.912Z,90.61
2022-11-02T00:28:30.145Z,91.09
2022-11-02T00:31:00.368Z,91.22
2022-11-02T00:33:29.780Z,90.07
2022-11-02T00:36:00.429Z,90.96
2022-11-02T00:38:33.342Z,91.45
2022-11-02T00:41:03.367Z,92.22
2022-11-02T00:43:32.618Z,91.03
2022-11-02T00:46:02.769Z,92.01
2022-11-02T00:48:34.006Z,92.42
2022-11-02T00:51:04.407Z,92.84
2022-11-02T00:53:34.857Z,92.73
2022-11-02T00:56:04.295Z,91.76
2022-11-02T00:58:34.252Z,92.82
2022-11-02T01:01:10.092Z,93.25
2022-11-02T01:03:41.164Z,93.53
2022-11-02T01:06:16.391Z,93.93
2022-11-02T01:08:46.646Z,94.10
2022-11-02T01:11:17.403Z,92.75
2022-11-02T01:13:48.418Z,93.92
2022-11-02T01:16:20.933Z,94.08
2022-11-02T01:18:57.094Z,94.38
2022-11-02T01:21:28.167Z,94.36
2022-11-02T01:23:58.426Z,94.23
2022-11-02T01:26:28.147Z,94.50
2022-11-02T01:28:58.308Z,94.56
2022-11-02T01:31:28.134Z,94.54
2022-11-02T01:33:57.444Z,93.48
2022-11-02T01:36:27.141Z,94.27
2022-11-02T01:38:57.362Z,93.06
2022-11-02T01:41:27.095Z,93.89
2022-11-02T01:44:02.575Z,94.35
2022-11-02T01:46:44.301Z,94.34
2022-11-02T01:49:19.569Z,94.43
2022-11-02T01:52:08.710Z,94.61
2022-11-02T01:55:02.595Z,94.64
2022-11-02T01:57:35.233Z,94.72
2022-11-02T02:00:11.774Z,94.85
2022-11-02T02:03:01.433Z,94.72
2022-11-02T02:05:37.193Z,94.72
2022-11-02T02:08:09.141Z,93.58
2022-11-02T02:10:39.378Z,94.64
2022-11-02T02:13:09.735Z,94.78
2022-11-02T02:15:57.197Z,94.89
2022-11-02T02:19:00.062Z,94.88
2022-11-02T02:21:40.561Z,95.22
2022-11-02T02:24:31.503Z,95.23
2022-11-02T02:27:12.027Z,95.38
2022-11-02T02:29:52.946Z,95.48
2022-11-02T02:32:57.405Z,95.26
2022-11-02T02:35:43.325Z,95.55
2022-11-02T02:38:21.158Z,95.82
2022-11-02T02:41:11.489Z,95.82
2022-11-02T02:43:53.971Z,95.81
2022-11-02T02:46:34.826Z,95.88
2022-11-02T02:49:08.077Z,95.96
2022-11-02T02:51:39.555Z,95.98
2022-11-02T02:54:23.900Z,95.93
2022-11-02T02:56:57.443Z,95.75
2022-11-02T02:59:35.648Z,95.58
2022-11-02T03:02:10.486Z,95.36
2022-11-02T03:04:40.458Z,95.73
2022-11-02T03:07:15.815Z,95.96
2022-11-02T03:09:53.094Z,96.11
2022-11-02T03:12:46.041Z,96.11
2022-11-02T03:15:39.443Z,96.33
2022-11-02T03:18:20.063Z,96.26
2022-11-02T03:21:16.856Z,96.03
2022-11-02T03:24:13.150Z,95.99
2022-11-02T03:27:02.757Z,95.86
2022-11-02T03:29:58.289Z,95.98
2022-11-02T03:32:31.591Z,95.88
2022-11-02T03:35:07.828Z,95.99
2022-11-02T03:37:42.547Z,96.06
2022-11-02T03:40:18.124Z,96.16
2022-11-02T03:42:50.474Z,96.22
2022-11-02T03:45:27.248Z,96.44
2022-11-02T03:48:08.214Z,96.49
2022-11-02T03:50:42.208Z,96.42
2022-11-02T03:53:20.297Z,96.32
2022-11-02T03:55:56.595Z,95.90
2022-11-02T03:58:26.801Z,95.70
2022-11-02T04:01:01.564Z,95.56
2022-11-02T04:03:35.267Z,95.35
2022-11-02T04:06:05.168Z,95.25
2022-11-02T04:08:45.560Z,95.15
2022-11-02T04:11:35.151Z,94.99
2022-11-02T04:14:31.013Z,94.89
2022-11-02T04:17:20.061Z,94.91
2022-11-02T04:19:54.036Z,95.20
2022-11-02T04:22:43.678Z,95.56
2022-11-02T04:25:22.226Z,95.53
2022-11-02T04:28:12.341Z,95.78
2022-11-02T04:30:57.556Z,96.21
2022-11-02T04:33:34.538Z,96.29
2022-11-02T04:36:11.181Z,96.54
2022-11-02T04:38:42.993Z,96.64
2022-11-02T04:41:42.452Z,96.55
2022-11-02T04:44:23.652Z,96.62
2022-11-02T04:47:02.207Z,96.88
2022-11-02T04:49:34.805Z,96.87
2022-11-02T04:52:07.324Z,97.19
2022-11-02T04:54:39.995Z,97.28
2022-11-02T04:57:10.030Z,97.40
2022-11-02T04:59:39.982Z,97.52
2022-11-02T05:02:10.621Z,97.48
2022-11-02T05:04:40.869Z,97.69
2022-11-02T05:07:12.980Z,97.91
2022-11-02T05:09:45.939Z,98.05
2022-11-02T05:12:17.534Z,98.13
2022-11-02T05:14:47.734Z,98.12
2022-11-02T05:17:17.875Z,97.54
2022-11-02T05:19:47.539Z,97.92
2022-11-02T05:22:17.233Z,98.12
2022-11-02T05:24:47.086Z,98.21
2022-11-02T05:27:16.786Z,97.71
2022-11-02T05:29:48.120Z,98.21
2022-11-02T05:32:18.571Z,98.14
2022-11-02T05:34:48.704Z,98.32
2022-11-02T05:37:18.627Z,98.43
2022-11-02T05:39:50.409Z,97.82
2022-11-02T05:42:20.942Z,98.47
2022-11-02T05:44:50.679Z,98.65
2022-11-02T05:47:21.295Z,98.71
2022-11-02T05:49:51.308Z,98.74
2022-11-02T05:52:21.321Z,98.86
2022-11-02T05:54:51.036Z,98.88
2022-11-02T05:57:20.694Z,98.99
2022-11-02T05:59:50.404Z,99.03
2022-11-02T06:02:23.276Z,98.84
2022-11-02T06:04:55.841Z,98.89
2022-11-02T06:07:25.587Z,98.94
2022-11-02T06:09:55.253Z,99.09
2022-11-02T06:12:25.262Z,99.23
2022-11-02T06:14:54.960Z,99.13
2022-11-02T06:17:24.895Z,99.25
2022-11-02T06:19:54.163Z,98.72
2022-11-02T06:22:23.963Z,99.17
2022-11-02T06:24:53.233Z,98.60
2022-11-02T06:27:22.818Z,98.96
2022-11-02T06:29:52.522Z,99.05
2022-11-02T06:32:22.413Z,99.31
2022-11-02T06:34:51.641Z,98.77
2022-11-02T06:37:24.025Z,99.34
2022-11-02T06:39:54.130Z,99.44
2022-11-02T06:42:23.901Z,99.46
2022-11-02T06:44:53.586Z,99.75
2022-11-02T06:47:23.277Z,99.70
2022-11-02T06:49:53.110Z,99.49
2022-11-02T06:52:23.676Z,99.51
2022-11-02T06:54:53.672Z,99.48
2022-11-02T06:57:24.168Z,99.49
2022-11-02T06:59:54.360Z,99.57
2022-11-02T07:02:24.596Z,99.53
2022-11-02T07:04:54.348Z,99.53
2022-11-02T07:07:24.295Z,99.38
2022-11-02T07:09:54.015Z,99.51
2022-11-02T07:12:23.923Z,99.59
2022-11-02T07:14:53.155Z,99.09
2022-11-02T07:17:22.733Z,99.58
2022-11-02T07:19:52.722Z,99.51
2022-11-02T07:22:23.212Z,99.58
2022-11-02T07:24:52.986Z,99.68
2022-11-02T07:27:22.293Z,99.18
2022-11-02T07:29:51.933Z,99.52
2022-11-02T07:32:21.629Z,99.65
2022-11-02T07:34:51.391Z,99.75
2022-11-02T07:37:20.763Z,99.28
2022-11-02T07:39:50.339Z,99.47
2022-11-02T07:42:20.474Z,99.55
2022-11-02T07:44:52.620Z,99.49
2022-11-02T07:47:22.794Z,99.57
2022-11-02T07:49:52.584Z,99.69
2022-11-02T07:52:21.866Z,99.31
2022-11-02T07:54:52.447Z,99.65
2022-11-02T07:57:22.103Z,99.78
2022-11-02T07:59:51.828Z,99.74
2022-11-02T08:02:21.542Z,99.80
2022-11-02T08:04:51.236Z,99.82
2022-11-02T08:07:20.912Z,99.83
2022-11-02T08:09:50.553Z,99.99
2022-11-02T08:12:20.614Z,99.90
2022-11-02T08:14:50.485Z,99.99
2022-11-02T08:17:19.729Z,99.62
2022-11-02T08:19:49.343Z,99.87
2022-11-02T08:22:19.016Z,99.97
2022-11-02T08:24:48.679Z,99.88
2022-11-02T08:27:18.603Z,99.96
2022-11-02T08:29:47.796Z,99.57
2022-11-02T08:32:17.487Z,99.69
2022-11-02T08:34:47.192Z,99.82
2022-11-02T08:37:17.018Z,99.66
2022-11-02T08:39:46.263Z,99.52
2022-11-02T08:42:16.179Z,99.70
2022-11-02T08:44:45.884Z,99.94
2022-11-02T08:47:17.065Z,99.92
2022-11-02T08:49:48.231Z,99.91
2022-11-02T08:52:18.298Z,99.99
2022-11-02T08:54:48.396Z,99.99
2022-11-02T08:57:18.373Z,99.99
2022-11-02T08:59:48.048Z,99.99
2022-11-02T09:02:18.660Z,99.99
2022-11-02T09:04:48.444Z,99.99
2022-11-02T09:07:18.998Z,99.95
2022-11-02T09:09:48.872Z,99.99
2022-11-02T09:12:18.717Z,99.99
2022-11-02T09:14:48.420Z,99.99
2022-11-02T09:17:18.091Z,99.99
2022-11-02T09:19:47.780Z,99.82
2022-11-02T09:22:17.539Z,99.91
2022-11-02T09:24:47.211Z,99.90
2022-11-02T09:27:16.875Z,99.74
2022-11-02T09:29:46.799Z,99.81
2022-11-02T09:32:16.557Z,99.69
2022-11-02T09:34:48.491Z,99.42
2022-11-02T09:37:18.485Z,99.51
2022-11-02T09:39:47.728Z,99.00
2022-11-02T09:42:33.299Z,98.86
2022-11-02T09:45:07.720Z,98.33
2022-11-02T09:50:46.556Z,91.81
2022-11-02T09:53:22.660Z,93.63
2022-11-02T09:55:58.428Z,92.93
2022-11-02T09:58:44.589Z,92.73
2022-11-02T10:01:38.906Z,91.98
2022-11-02T10:04:28.591Z,80.23
2022-11-02T10:07:29.917Z,65.82
2022-11-02T10:10:11.077Z,62.16
2022-11-02T10:13:15.340Z,58.55
2022-11-02T10:16:03.787Z,55.10
2022-11-02T10:18:35.161Z,52.13
2022-11-02T10:21:31.435Z,57.47
2022-11-02T10:24:13.446Z,56.66
2022-11-02T10:26:44.666Z,56.07
2022-11-02T10:29:20.586Z,61.20
2022-11-02T10:31:50.433Z,61.69
2022-11-02T10:34:27.310Z,56.90
2022-11-02T10:37:34.201Z,60.27
2022-11-02T10:40:34.271Z,60.94
2022-11-02T10:43:28.410Z,64.41
2022-11-02T10:46:24.597Z,62.11
2022-11-02T10:49:31.606Z,66.56
2022-11-02T10:52:01.802Z,63.74
2022-11-02T10:54:34.468Z,58.65
2022-11-02T10:57:15.385Z,65.89
2022-11-02T10:59:45.818Z,60.79
2022-11-02T11:02:16.483Z,66.78
2022-11-02T11:04:46.214Z,69.28
2022-11-02T11:07:22.081Z,73.77
2022-11-02T11:09:59.224Z,64.89
2022-11-02T11:12:41.714Z,64.68
2022-11-02T11:15:49.371Z,69.99
2022-11-02T11:21:12.838Z,69.59
2022-11-02T11:23:42.813Z,69.63
2022-11-02T11:26:29.671Z,68.31
2022-11-02T11:29:00.677Z,66.42
2022-11-02T11:31:33.003Z,64.80
2022-11-02T11:34:03.204Z,67.53
2022-11-02T11:36:35.917Z,63.50
2022-11-02T11:39:23.003Z,65.09
2022-11-02T11:41:53.040Z,64.82
2022-11-02T11:44:24.008Z,67.24
2022-11-02T11:46:58.525Z,61.90
2022-11-02T11:52:33.549Z,63.39
2022-11-02T11:55:25.184Z,59.83
2022-11-02T11:58:20.584Z,60.54
2022-11-02T12:01:14.036Z,58.60
2022-11-02T12:03:54.313Z,58.65
2022-11-02T12:06:51.356Z,57.56
2022-11-02T12:09:51.617Z,57.35
2022-11-02T12:12:32.968Z,55.73
2022-11-02T12:15:10.643Z,53.88
2022-11-02T12:18:12.921Z,56.58
2022-11-02T12:21:07.450Z,58.17
2022-11-02T12:23:42.992Z,58.59
2022-11-02T12:26:28.284Z,64.48
2022-11-02T12:29:23.188Z,57.91
2022-11-02T12:32:19.333Z,58.15
2022-11-02T12:37:52.023Z,60.03
2022-11-02T12:40:46.428Z,54.21
2022-11-02T12:43:48.881Z,56.39
2022-11-02T12:46:33.943Z,53.08
2022-11-02T12:49:27.147Z,57.15
2022-11-02T12:52:19.896Z,48.84
2022-11-02T12:54:51.802Z,43.86
2022-11-02T12:57:24.898Z,47.73
2022-11-02T13:00:01.444Z,46.13
2022-11-02T13:02:43.074Z,45.37
2022-11-02T13:05:20.270Z,43.73
2022-11-02T13:08:11.001Z,51.78
2022-11-02T13:10:53.295Z,44.15
2022-11-02T13:13:34.130Z,43.65
2022-11-02T13:16:06.537Z,41.38
2022-11-02T13:18:55.492Z,45.16
2022-11-02T13:21:57.165Z,50.14
2022-11-02T13:24:36.576Z,48.46
2022-11-02T13:27:21.705Z,46.70
2022-11-02T13:30:03.240Z,46.12
2022-11-02T13:32:44.723Z,45.48
2022-11-02T13:35:24.111Z,46.52
2022-11-02T13:38:04.093Z,48.31
2022-11-02T13:40:50.100Z,45.41
2022-11-02T13:43:38.327Z,52.43
2022-11-02T13:46:33.347Z,53.72
2022-11-02T13:49:15.089Z,52.89
2022-11-02T13:52:14.885Z,52.23
2022-11-02T13:54:52.839Z,52.03
2022-11-02T13:57:37.232Z,48.60
2022-11-02T14:00:28.223Z,44.95
2022-11-02T14:03:00.888Z,47.66
2022-11-02T14:05:32.389Z,45.98
2022-11-02T14:08:12.404Z,43.11
2022-11-02T14:10:43.199Z,45.68
2022-11-02T14:13:18.719Z,44.31
2022-11-02T14:15:54.462Z,47.41
2022-11-02T14:18:32.186Z,46.80
2022-11-02T14:21:41.620Z,46.96
2022-11-02T14:24:39.631Z,47.59
2022-11-02T14:27:15.130Z,43.61
2022-11-02T14:29:48.211Z,44.53
2022-11-02T14:33:03.608Z,46.62
2022-11-02T14:35:44.693Z,46.11
2022-11-02T14:38:41.051Z,44.80
2022-11-02T14:41:38.452Z,41.85
2022-11-02T14:44:23.026Z,44.40
2022-11-02T14:47:02.815Z,42.75
2022-11-02T14:49:57.653Z,40.38
2022-11-02T14:52:33.843Z,44.47
2022-11-02T14:55:19.492Z,45.42
2022-11-02T14:58:01.125Z,44.94
2022-11-02T15:00:34.200Z,43.91
2022-11-02T15:03:08.364Z,45.10
2022-11-02T15:05:40.849Z,46.59
2022-11-02T15:08:16.918Z,46.74
2022-11-02T15:10:47.867Z,42.15
2022-11-02T15:13:20.595Z,40.58
2022-11-02T15:15:54.041Z,40.23
2022-11-02T15:18:31.960Z,43.28
2022-11-02T15:21:14.140Z,39.53
2022-11-02T15:23:56.728Z,42.81
2022-11-02T15:26:31.367Z,44.02
2022-11-02T15:29:06.919Z,43.52
2022-11-02T15:31:58.371Z,44.78
2022-11-02T15:34:45.788Z,40.33
2022-11-02T15:37:32.576Z,38.72
2022-11-02T15:40:06.392Z,43.96
2022-11-02T15:43:09.751Z,43.23
2022-11-02T15:45:59.370Z,40.00
2022-11-02T15:49:11.883Z,43.49
2022-11-02T15:51:52.122Z,40.44
2022-11-02T15:55:02.356Z,39.86
2022-11-02T15:57:44.761Z,39.47
2022-11-02T16:00:22.940Z,40.92
2022-11-02T16:02:56.218Z,37.29
2022-11-02T16:05:28.961Z,34.53
2022-11-02T16:08:15.114Z,37.17
2022-11-02T16:10:45.050Z,35.00
2022-11-02T16:13:23.940Z,39.76
2022-11-02T16:16:07.916Z,39.62
2022-11-02T16:18:42.403Z,39.14
2022-11-02T16:21:17.527Z,39.94
2022-11-02T16:23:51.369Z,47.74
2022-11-02T16:26:28.047Z,43.17
2022-11-02T16:29:00.978Z,45.64
2022-11-02T16:31:34.757Z,48.18
2022-11-02T16:34:20.669Z,41.87
2022-11-02T16:36:51.199Z,40.94
2022-11-02T16:39:38.791Z,41.64
2022-11-02T16:42:23.302Z,37.28
2022-11-02T16:45:06.127Z,38.81
2022-11-02T16:47:44.475Z,34.95
2022-11-02T16:50:25.377Z,37.33
2022-11-02T16:53:00.948Z,40.08
2022-11-02T16:55:41.894Z,37.67
2022-11-02T16:58:26.373Z,34.72
2022-11-02T17:01:06.617Z,41.69
2022-11-02T17:03:36.734Z,35.47
2022-11-02T17:06:08.351Z,41.08
2022-11-02T17:08:42.464Z,39.35
2022-11-02T17:11:20.232Z,42.65
2022-11-02T17:14:02.075Z,45.90
2022-11-02T17:16:35.515Z,38.43
2022-11-02T17:19:31.776Z,37.59
2022-11-02T17:22:31.333Z,43.56
2022-11-02T17:25:24.100Z,40.74
2022-11-02T17:27:56.190Z,40.50
2022-11-02T17:30:46.946Z,41.10
2022-11-02T17:33:32.135Z,39.81
2022-11-02T17:36:08.693Z,39.47
2022-11-02T17:38:39.155Z,40.50
2022-11-02T17:41:31.443Z,48.75
2022-11-02T17:44:01.442Z,44.06
2022-11-02T17:46:31.473Z,43.83
2022-11-02T17:49:01.216Z,43.29
2022-11-02T17:51:30.924Z,36.48
2022-11-02T17:54:00.916Z,37.19
2022-11-02T17:56:31.548Z,36.51
2022-11-02T17:59:02.939Z,39.11
2022-11-02T18:01:36.473Z,36.23
2022-11-02T18:04:06.773Z,36.98
2022-11-02T18:06:36.608Z,41.88
2022-11-02T18:09:26.032Z,41.20
2022-11-02T18:11:56.564Z,46.41
2022-11-02T18:14:26.267Z,46.81
2022-11-02T18:16:56.284Z,41.72
2022-11-02T18:19:26.045Z,38.33
2022-11-02T18:21:56.787Z,38.18
2022-11-02T18:24:27.289Z,37.19
2022-11-02T18:26:57.063Z,38.07
2022-11-02T18:29:26.876Z,40.92
2022-11-02T18:31:57.003Z,34.27
2022-11-02T18:34:26.761Z,37.54
2022-11-02T18:36:56.483Z,34.98
2022-11-02T18:39:26.186Z,34.60
2022-11-02T18:41:55.939Z,38.37
2022-11-02T18:44:25.741Z,35.02
2022-11-02T18:46:56.192Z,36.34
2022-11-02T18:49:25.855Z,37.42
2022-11-02T18:51:55.650Z,41.22
2022-11-02T18:54:25.397Z,42.50
2022-11-02T18:56:57.000Z,38.66
2022-11-02T18:59:27.520Z,37.92
2022-11-02T19:01:57.379Z,33.46
2022-11-02T19:04:27.277Z,39.97
2022-11-02T19:07:16.334Z,39.54
2022-11-02T19:09:46.665Z,38.15
2022-11-02T19:12:25.875Z,39.76
2022-11-02T19:14:56.633Z,35.30
2022-11-02T19:17:27.801Z,39.07
2022-11-02T19:19:57.641Z,38.21
2022-11-02T19:22:28.587Z,32.40
2022-11-02T19:25:00.099Z,31.89
2022-11-02T19:27:30.397Z,31.31
2022-11-02T19:30:00.276Z,29.12
2022-11-02T19:32:30.298Z,34.10
2022-11-02T19:35:00.083Z,36.18
2022-11-02T19:37:34.367Z,40.44
2022-11-02T19:40:05.153Z,35.10
2022-11-02T19:42:35.537Z,36.20
2022-11-02T19:45:06.719Z,35.13
2022-11-02T19:47:36.444Z,32.42
2022-11-02T19:50:06.525Z,32.69
2022-11-02T19:52:36.858Z,31.83
2022-11-02T19:55:06.987Z,31.89
2022-11-02T19:57:36.766Z,41.57
2022-11-02T20:00:06.983Z,43.35
2022-11-02T20:02:38.773Z,43.96
2022-11-02T20:05:09.500Z,43.68
2022-11-02T20:07:39.318Z,44.67
2022-11-02T20:10:09.666Z,45.94
2022-11-02T20:12:39.945Z,46.41
2022-11-02T20:15:12.100Z,47.39
2022-11-02T20:17:58.419Z,49.98
2022-11-02T20:20:32.169Z,51.53
2022-11-02T20:23:02.599Z,50.18
2022-11-02T20:25:32.443Z,50.45
2022-11-02T20:28:02.412Z,52.56
2022-11-02T20:30:32.477Z,52.31
2022-11-02T20:33:02.284Z,54.08
2022-11-02T20:35:34.056Z,56.33
2022-11-02T20:38:04.600Z,57.25
2022-11-02T20:40:40.169Z,57.58
2022-11-02T20:43:11.145Z,57.48
2022-11-02T20:45:40.921Z,57.97
2022-11-02T20:48:10.834Z,56.75
2022-11-02T20:50:40.642Z,58.08
2022-11-02T20:53:10.845Z,56.70
2022-11-02T20:55:40.676Z,57.85
2022-11-02T20:58:10.367Z,55.95
2022-11-02T21:00:40.482Z,58.59
2022-11-02T21:03:10.388Z,57.52
2022-11-02T21:05:40.579Z,58.60
2022-11-02T21:08:10.951Z,59.06
2022-11-02T21:10:41.061Z,59.46
2022-11-02T21:13:31.546Z,59.22
2022-11-02T21:16:05.126Z,58.21
2022-11-02T21:18:35.416Z,60.99
2022-11-02T21:21:16.612Z,60.09
2022-11-02T21:23:47.371Z,59.54
2022-11-02T21:26:17.786Z,61.09
2022-11-02T21:28:48.667Z,63.89
2022-11-02T21:31:21.623Z,62.74
2022-11-02T21:33:51.910Z,67.91
2022-11-02T21:36:22.018Z,64.07
2022-11-02T21:38:51.885Z,66.43
2022-11-02T21:41:26.873Z,64.37
2022-11-02T21:43:57.226Z,64.46
2022-11-02T21:46:26.990Z,64.86
2022-11-02T21:48:57.400Z,64.19
2022-11-02T21:51:27.271Z,64.58
2022-11-02T21:53:57.829Z,63.04
2022-11-02T21:56:29.400Z,61.59
2022-11-02T21:58:59.576Z,63.66
2022-11-02T22:01:50.816Z,63.99
2022-11-02T22:04:29.224Z,64.18
2022-11-02T22:07:03.297Z,66.29
2022-11-02T22:09:33.540Z,64.01
2022-11-02T22:12:22.404Z,63.12
2022-11-02T22:14:52.613Z,62.87
2022-11-02T22:17:47.850Z,63.62
2022-11-02T22:20:13.248Z,64.70
2022-11-02T22:22:43.084Z,65.30
2022-11-02T22:25:13.067Z,64.25
2022-11-02T22:27:42.890Z,62.97
2022-11-02T22:30:13.324Z,66.33
2022-11-02T22:32:43.175Z,64.68
2022-11-02T22:35:13.025Z,65.97
2022-11-02T22:38:01.114Z,67.64
2022-11-02T22:40:31.357Z,64.89
2022-11-02T22:43:01.109Z,66.10
2022-11-02T22:45:30.856Z,64.75
2022-11-02T22:48:00.655Z,66.95
2022-11-02T22:50:30.357Z,66.78
2022-11-02T22:53:00.259Z,67.30
2022-11-02T22:55:32.691Z,65.23
2022-11-02T22:58:03.146Z,67.52
2022-11-02T23:00:33.097Z,67.76
2022-11-02T23:03:03.866Z,67.37
2022-11-02T23:05:34.180Z,69.15
2022-11-02T23:08:03.980Z,68.38
2022-11-02T23:10:54.445Z,67.88
2022-11-02T23:13:25.717Z,69.00
2022-11-02T23:16:22.298Z,67.82
2022-11-02T23:19:20.304Z,69.27
2022-11-02T23:22:28.110Z,71.04
2022-11-02T23:25:13.300Z,71.00
2022-11-02T23:28:07.475Z,71.06
2022-11-02T23:30:58.651Z,69.31
2022-11-02T23:33:39.164Z,71.15
2022-11-02T23:36:13.496Z,70.90
2022-11-02T23:39:04.864Z,71.90
2022-11-02T23:41:37.938Z,72.70
2022-11-02T23:44:15.017Z,72.86
2022-11-02T23:46:52.310Z,73.39
2022-11-02T23:49:22.465Z,74.61
2022-11-02T23:52:10.361Z,76.00
2022-11-02T23:54:58.826Z,76.77
2022-11-02T23:57:30.925Z,76.86
